MON3559 LEMH-EGCC
Flight info
| Callsign | MON3559 |
|---|---|
| Flight time | N/A |
| Altitude | 34000 |
| Route | MEROS N853 LUMAS/N0452F400 DCT SOFFY DCT MRM DCT MTL DCT ETREK DCT MADOT DCT MOPEM DCT CACHI DCT AVLON DCT OKRIX DCT BRY DCT CLM DCT KOPOR DCT VESAN DCT RATUK DCT SOVAT L613 SANDY UN57 WELIN T420 ELVOS |
| Aircraft | A332/H-SDE3GHIJ2J3J5M1RVWXY/LB2D1 |
Departure
| Time | 2026-04-30 20:58 |
|---|---|
| Airport | Menorca Airport (LEMH) |
Arrival
| Time | N/A |
|---|---|
| Airport | Manchester Airport (EGCC) |
| Time | Latitude | Longitude | Altitude | Speed | Heading |
|---|---|---|---|---|---|
| 2026-04-30 20:18 | 39.86770 | 4.22309 | 311 ft | 0 kts | 290° |
| 2026-04-30 20:22 | 39.86770 | 4.22310 | 311 ft | 0 kts | 290° |
| 2026-04-30 20:30 | 39.86769 | 4.22310 | 313 ft | 0 kts | 290° |
| 2026-04-30 20:35 | 39.86769 | 4.22311 | 313 ft | 0 kts | 290° |
| 2026-04-30 20:43 | 39.86765 | 4.22326 | 311 ft | 4 kts | 290° |
| 2026-04-30 20:43 | 39.86756 | 4.22356 | 311 ft | 4 kts | 310° |
| 2026-04-30 20:43 | 39.86735 | 4.22371 | 309 ft | 4 kts | 1° |
| 2026-04-30 20:44 | 39.86711 | 4.22367 | 309 ft | 0 kts | 9° |
| 2026-04-30 20:50 | 39.86712 | 4.22367 | 309 ft | 1 kts | 9° |
| 2026-04-30 20:50 | 39.86743 | 4.22374 | 311 ft | 9 kts | 9° |
| 2026-04-30 20:50 | 39.86819 | 4.22390 | 314 ft | 12 kts | 9° |
| 2026-04-30 20:50 | 39.86885 | 4.22386 | 312 ft | 9 kts | 336° |
| 2026-04-30 20:51 | 39.86916 | 4.22314 | 315 ft | 10 kts | 281° |
| 2026-04-30 20:51 | 39.86799 | 4.22218 | 314 ft | 14 kts | 189° |
| 2026-04-30 20:51 | 39.86696 | 4.22196 | 313 ft | 16 kts | 187° |
| 2026-04-30 20:52 | 39.86561 | 4.22170 | 308 ft | 22 kts | 189° |
| 2026-04-30 20:52 | 39.86405 | 4.22137 | 310 ft | 24 kts | 189° |
| 2026-04-30 20:52 | 39.86048 | 4.22065 | 304 ft | 28 kts | 190° |
| 2026-04-30 20:53 | 39.85848 | 4.22024 | 303 ft | 30 kts | 188° |
| 2026-04-30 20:53 | 39.85635 | 4.21979 | 302 ft | 32 kts | 188° |
| 2026-04-30 20:53 | 39.85414 | 4.21934 | 298 ft | 27 kts | 193° |
| 2026-04-30 20:54 | 39.85121 | 4.21874 | 296 ft | 16 kts | 193° |
| 2026-04-30 20:54 | 39.85077 | 4.21828 | 295 ft | 6 kts | 243° |
| 2026-04-30 20:54 | 39.85075 | 4.21775 | 295 ft | 0 kts | 286° |
| 2026-04-30 20:56 | 39.85090 | 4.21736 | 296 ft | 12 kts | 305° |
| 2026-04-30 20:57 | 39.85167 | 4.21655 | 296 ft | 14 kts | 348° |
| 2026-04-30 20:57 | 39.85223 | 4.21655 | 297 ft | 0 kts | 6° |
| 2026-04-30 20:58 | 39.85386 | 4.21684 | 298 ft | 57 kts | 9° |
| 2026-04-30 20:58 | 39.86021 | 4.21816 | 307 ft | 124 kts | 9° |
| 2026-04-30 20:58 | 39.87061 | 4.22012 | 449 ft | 171 kts | 8° |
| 2026-04-30 20:58 | 39.88348 | 4.22240 | 1005 ft | 195 kts | 8° |
| 2026-04-30 20:59 | 39.91162 | 4.22814 | 2474 ft | 231 kts | 11° |
| 2026-04-30 20:59 | 39.92832 | 4.23162 | 3004 ft | 251 kts | 9° |
| 2026-04-30 21:00 | 39.96404 | 4.23964 | 4637 ft | 268 kts | 12° |
| 2026-04-30 21:00 | 40.00188 | 4.24804 | 6411 ft | 280 kts | 11° |
| 2026-04-30 21:01 | 40.04084 | 4.25710 | 8318 ft | 288 kts | 9° |
| 2026-04-30 21:01 | 40.06068 | 4.26181 | 9329 ft | 290 kts | 9° |
| 2026-04-30 21:01 | 40.10131 | 4.27143 | 10787 ft | 314 kts | 8° |
| 2026-04-30 21:02 | 40.12357 | 4.27668 | 11186 ft | 334 kts | 8° |
| 2026-04-30 21:02 | 40.14683 | 4.28220 | 11874 ft | 343 kts | 8° |
| 2026-04-30 21:02 | 40.17050 | 4.28784 | 12702 ft | 348 kts | 8° |
| 2026-04-30 21:02 | 40.19452 | 4.29355 | 13558 ft | 352 kts | 8° |
| 2026-04-30 21:03 | 40.21878 | 4.29933 | 14353 ft | 356 kts | 7° |
| 2026-04-30 21:03 | 40.24335 | 4.30518 | 15110 ft | 361 kts | 7° |
| 2026-04-30 21:03 | 40.26819 | 4.31109 | 15862 ft | 365 kts | 7° |
| 2026-04-30 21:03 | 40.29296 | 4.31700 | 16601 ft | 369 kts | 7° |
| 2026-04-30 21:04 | 40.31840 | 4.32306 | 17349 ft | 373 kts | 7° |
| 2026-04-30 21:04 | 40.34415 | 4.32921 | 18100 ft | 378 kts | 7° |
| 2026-04-30 21:04 | 40.39642 | 4.34170 | 19417 ft | 385 kts | 7° |
| 2026-04-30 21:05 | 40.41396 | 4.34590 | 19843 ft | 387 kts | 7° |
| 2026-04-30 21:05 | 40.44059 | 4.35227 | 20497 ft | 390 kts | 7° |
| 2026-04-30 21:05 | 40.47627 | 4.36083 | 21325 ft | 395 kts | 7° |
| 2026-04-30 21:05 | 40.50344 | 4.36733 | 21925 ft | 399 kts | 7° |
| 2026-04-30 21:06 | 40.52198 | 4.37176 | 22339 ft | 401 kts | 6° |
| 2026-04-30 21:06 | 40.54958 | 4.37835 | 22942 ft | 404 kts | 6° |
| 2026-04-30 21:06 | 40.57735 | 4.38497 | 23528 ft | 408 kts | 6° |
| 2026-04-30 21:06 | 40.60541 | 4.39166 | 24026 ft | 412 kts | 6° |
| 2026-04-30 21:07 | 40.63370 | 4.39842 | 24487 ft | 415 kts | 6° |
| 2026-04-30 21:07 | 40.66224 | 4.40525 | 24964 ft | 418 kts | 6° |
| 2026-04-30 21:07 | 40.69102 | 4.41215 | 25409 ft | 422 kts | 6° |
| 2026-04-30 21:07 | 40.71963 | 4.41901 | 25859 ft | 425 kts | 6° |
| 2026-04-30 21:08 | 40.74883 | 4.42602 | 26306 ft | 428 kts | 6° |
| 2026-04-30 21:08 | 40.77833 | 4.43311 | 26744 ft | 431 kts | 6° |
| 2026-04-30 21:08 | 40.80798 | 4.44025 | 27181 ft | 434 kts | 6° |
| 2026-04-30 21:08 | 40.83783 | 4.44743 | 27630 ft | 437 kts | 6° |
| 2026-04-30 21:09 | 40.86789 | 4.45468 | 28099 ft | 440 kts | 6° |
| 2026-04-30 21:09 | 40.89808 | 4.46196 | 28535 ft | 443 kts | 6° |
| 2026-04-30 21:09 | 40.92850 | 4.46932 | 28947 ft | 446 kts | 6° |
| 2026-04-30 21:09 | 40.95914 | 4.47674 | 29362 ft | 449 kts | 6° |
| 2026-04-30 21:10 | 40.98995 | 4.48422 | 29788 ft | 452 kts | 6° |
| 2026-04-30 21:10 | 41.02100 | 4.49176 | 30193 ft | 455 kts | 6° |
| 2026-04-30 21:10 | 41.05231 | 4.49937 | 30558 ft | 458 kts | 6° |
| 2026-04-30 21:10 | 41.08368 | 4.50701 | 30968 ft | 459 kts | 6° |
| 2026-04-30 21:11 | 41.11522 | 4.51469 | 31340 ft | 461 kts | 6° |
| 2026-04-30 21:11 | 41.14690 | 4.52241 | 31685 ft | 464 kts | 6° |
| 2026-04-30 21:11 | 41.17878 | 4.53018 | 32028 ft | 467 kts | 6° |
| 2026-04-30 21:11 | 41.21085 | 4.53801 | 32385 ft | 469 kts | 6° |
| 2026-04-30 21:12 | 41.24244 | 4.54573 | 32860 ft | 468 kts | 6° |
| 2026-04-30 21:12 | 41.27442 | 4.55357 | 33399 ft | 466 kts | 6° |
| 2026-04-30 21:12 | 41.30624 | 4.56139 | 33913 ft | 464 kts | 6° |
| 2026-04-30 21:12 | 41.33804 | 4.56918 | 34125 ft | 465 kts | 6° |
| 2026-04-30 21:13 | 41.40172 | 4.58481 | 34141 ft | 464 kts | 5° |
| 2026-04-30 21:13 | 41.46514 | 4.60039 | 34144 ft | 463 kts | 5° |
| 2026-04-30 21:14 | 41.52851 | 4.61600 | 34148 ft | 462 kts | 5° |
| 2026-04-30 21:14 | 41.59181 | 4.63162 | 34144 ft | 462 kts | 5° |
| 2026-04-30 21:15 | 41.65492 | 4.64722 | 34153 ft | 462 kts | 5° |
| 2026-04-30 21:15 | 41.71820 | 4.66299 | 34153 ft | 462 kts | 6° |
| 2026-04-30 21:16 | 41.78006 | 4.68488 | 34158 ft | 464 kts | 10° |
| 2026-04-30 21:16 | 41.84208 | 4.70890 | 34160 ft | 464 kts | 11° |
| 2026-04-30 21:17 | 41.90404 | 4.73339 | 34172 ft | 464 kts | 11° |
| 2026-04-30 21:17 | 41.96598 | 4.75789 | 34163 ft | 463 kts | 11° |
| 2026-04-30 21:18 | 42.02777 | 4.78228 | 34181 ft | 463 kts | 11° |
| 2026-04-30 21:18 | 42.05870 | 4.79449 | 34407 ft | 463 kts | 11° |
| 2026-04-30 21:18 | 42.08959 | 4.80669 | 34805 ft | 462 kts | 11° |
| 2026-04-30 21:19 | 42.12036 | 4.81887 | 35279 ft | 459 kts | 11° |
| 2026-04-30 21:19 | 42.15089 | 4.83098 | 35720 ft | 457 kts | 10° |
| 2026-04-30 21:19 | 42.18140 | 4.84308 | 36091 ft | 457 kts | 10° |
| 2026-04-30 21:19 | 42.21196 | 4.85519 | 36427 ft | 457 kts | 10° |
| 2026-04-30 21:20 | 42.24245 | 4.86729 | 36754 ft | 457 kts | 10° |
| 2026-04-30 21:20 | 42.27288 | 4.87938 | 37103 ft | 456 kts | 10° |
| 2026-04-30 21:20 | 42.30296 | 4.89135 | 37456 ft | 456 kts | 11° |
| 2026-04-30 21:20 | 42.33335 | 4.90346 | 37800 ft | 455 kts | 10° |
| 2026-04-30 21:21 | 42.36368 | 4.91555 | 38164 ft | 455 kts | 10° |
| 2026-04-30 21:21 | 42.39410 | 4.92770 | 38480 ft | 454 kts | 10° |
| 2026-04-30 21:21 | 42.45477 | 4.95195 | 39051 ft | 454 kts | 11° |
| 2026-04-30 21:22 | 42.48502 | 4.96406 | 39339 ft | 452 kts | 11° |
| 2026-04-30 21:22 | 42.57519 | 5.00026 | 40130 ft | 450 kts | 11° |
| 2026-04-30 21:23 | 42.60538 | 5.01237 | 40188 ft | 454 kts | 11° |
| 2026-04-30 21:23 | 42.69722 | 5.04930 | 40193 ft | 460 kts | 11° |
| 2026-04-30 21:24 | 42.75849 | 5.07409 | 40194 ft | 459 kts | 11° |
| 2026-04-30 21:24 | 42.81972 | 5.09889 | 40194 ft | 459 kts | 11° |
| 2026-04-30 21:25 | 42.91145 | 5.13610 | 40211 ft | 459 kts | 11° |
| 2026-04-30 21:26 | 43.00282 | 5.17329 | 40200 ft | 459 kts | 11° |
| 2026-04-30 21:27 | 43.09455 | 5.21065 | 40197 ft | 458 kts | 11° |
| 2026-04-30 21:27 | 43.15571 | 5.23558 | 40192 ft | 458 kts | 11° |
| 2026-04-30 21:28 | 43.24743 | 5.27307 | 40187 ft | 458 kts | 11° |
| 2026-04-30 21:29 | 43.33943 | 5.30854 | 40187 ft | 453 kts | 4° |
| 2026-04-30 21:29 | 43.43082 | 5.30162 | 40185 ft | 437 kts | 340° |
| 2026-04-30 21:30 | 43.48889 | 5.27712 | 40183 ft | 436 kts | 337° |
| 2026-04-30 21:31 | 43.63269 | 5.20995 | 40211 ft | 437 kts | 338° |
| 2026-04-30 21:32 | 43.71925 | 5.17013 | 40226 ft | 437 kts | 338° |
| 2026-04-30 21:32 | 43.77711 | 5.14351 | 40211 ft | 438 kts | 338° |
| 2026-04-30 21:33 | 43.86400 | 5.10341 | 40209 ft | 439 kts | 338° |
| 2026-04-30 21:34 | 43.92185 | 5.07664 | 40216 ft | 439 kts | 338° |
| 2026-04-30 21:34 | 44.00894 | 5.03622 | 40214 ft | 440 kts | 338° |
| 2026-04-30 21:35 | 44.06657 | 5.00940 | 40211 ft | 440 kts | 338° |
| 2026-04-30 21:35 | 44.12465 | 4.98233 | 40218 ft | 440 kts | 338° |
| 2026-04-30 21:36 | 44.18276 | 4.95517 | 40214 ft | 442 kts | 338° |
| 2026-04-30 21:37 | 44.29968 | 4.90037 | 40220 ft | 444 kts | 338° |
| 2026-04-30 21:37 | 44.35827 | 4.87283 | 40227 ft | 445 kts | 338° |
| 2026-04-30 21:38 | 44.41698 | 4.84517 | 40225 ft | 446 kts | 338° |
| 2026-04-30 21:38 | 44.47554 | 4.81753 | 40229 ft | 446 kts | 338° |
| 2026-04-30 21:39 | 44.53438 | 4.78977 | 40225 ft | 446 kts | 340° |
| 2026-04-30 21:39 | 44.59539 | 4.77110 | 40232 ft | 450 kts | 347° |
| 2026-04-30 21:40 | 44.65733 | 4.75674 | 40228 ft | 451 kts | 348° |
| 2026-04-30 21:40 | 44.71946 | 4.74322 | 40231 ft | 452 kts | 348° |
| 2026-04-30 21:41 | 44.78160 | 4.72965 | 40227 ft | 451 kts | 348° |
| 2026-04-30 21:41 | 44.84367 | 4.71591 | 40229 ft | 451 kts | 348° |
| 2026-04-30 21:42 | 44.90563 | 4.70209 | 40229 ft | 451 kts | 348° |
| 2026-04-30 21:42 | 44.96748 | 4.68825 | 40222 ft | 452 kts | 349° |
| 2026-04-30 21:43 | 45.01956 | 4.67657 | 40228 ft | 452 kts | 349° |
| 2026-04-30 21:43 | 45.09185 | 4.66034 | 40225 ft | 452 kts | 349° |
| 2026-04-30 21:44 | 45.15404 | 4.64633 | 40221 ft | 453 kts | 349° |
| 2026-04-30 21:44 | 45.21632 | 4.63225 | 40215 ft | 453 kts | 349° |
| 2026-04-30 21:45 | 45.27869 | 4.61802 | 40228 ft | 453 kts | 349° |
| 2026-04-30 21:45 | 45.34100 | 4.60375 | 40225 ft | 454 kts | 349° |
| 2026-04-30 21:46 | 45.40338 | 4.58945 | 40218 ft | 455 kts | 349° |
| 2026-04-30 21:46 | 45.46562 | 4.57514 | 40207 ft | 455 kts | 349° |
| 2026-04-30 21:47 | 45.52814 | 4.56076 | 40209 ft | 455 kts | 349° |
| 2026-04-30 21:47 | 45.59068 | 4.54633 | 40209 ft | 455 kts | 349° |
| 2026-04-30 21:48 | 45.65311 | 4.53190 | 40208 ft | 455 kts | 349° |
| 2026-04-30 21:48 | 45.71563 | 4.51740 | 40201 ft | 455 kts | 349° |
| 2026-04-30 21:49 | 45.77808 | 4.50289 | 40196 ft | 455 kts | 349° |
| 2026-04-30 21:49 | 45.84065 | 4.48833 | 40195 ft | 455 kts | 349° |
| 2026-04-30 21:50 | 45.90277 | 4.47382 | 40196 ft | 455 kts | 350° |
| 2026-04-30 21:50 | 45.96519 | 4.45922 | 40195 ft | 455 kts | 350° |
| 2026-04-30 21:51 | 46.02772 | 4.44457 | 40192 ft | 455 kts | 350° |
| 2026-04-30 21:51 | 46.08010 | 4.43226 | 40195 ft | 455 kts | 350° |
| 2026-04-30 21:52 | 46.14218 | 4.41764 | 40192 ft | 455 kts | 349° |
| 2026-04-30 21:52 | 46.20470 | 4.40289 | 40189 ft | 455 kts | 350° |
| 2026-04-30 21:53 | 46.26720 | 4.38811 | 40190 ft | 455 kts | 350° |
| 2026-04-30 21:53 | 46.32933 | 4.36990 | 40186 ft | 456 kts | 346° |
| 2026-04-30 21:54 | 46.39111 | 4.34775 | 40186 ft | 457 kts | 345° |
| 2026-04-30 21:54 | 46.45285 | 4.32525 | 40185 ft | 457 kts | 345° |
| 2026-04-30 21:55 | 46.51464 | 4.30319 | 40185 ft | 457 kts | 346° |
| 2026-04-30 21:55 | 46.57645 | 4.28136 | 40184 ft | 457 kts | 346° |
| 2026-04-30 21:56 | 46.63830 | 4.25953 | 40184 ft | 457 kts | 346° |
| 2026-04-30 21:56 | 46.69970 | 4.23781 | 40184 ft | 457 kts | 346° |
| 2026-04-30 21:57 | 46.76153 | 4.21586 | 40186 ft | 457 kts | 346° |
| 2026-04-30 21:57 | 46.82332 | 4.19386 | 40186 ft | 457 kts | 346° |
| 2026-04-30 21:58 | 46.88519 | 4.17179 | 40187 ft | 457 kts | 346° |
| 2026-04-30 21:58 | 46.94697 | 4.14969 | 40187 ft | 457 kts | 346° |
| 2026-04-30 21:59 | 47.00878 | 4.12753 | 40186 ft | 457 kts | 346° |
| 2026-04-30 22:00 | 47.09960 | 4.08709 | 40186 ft | 457 kts | 339° |
| 2026-04-30 22:00 | 47.18856 | 4.03528 | 40190 ft | 460 kts | 338° |
| 2026-04-30 22:01 | 47.24791 | 3.99986 | 40187 ft | 460 kts | 338° |
| 2026-04-30 22:01 | 47.30720 | 3.96451 | 40187 ft | 460 kts | 338° |
| 2026-04-30 22:02 | 47.36656 | 3.92914 | 40186 ft | 460 kts | 338° |
| 2026-04-30 22:02 | 47.42591 | 3.89375 | 40184 ft | 460 kts | 338° |
| 2026-04-30 22:03 | 47.48527 | 3.85825 | 40184 ft | 460 kts | 338° |
| 2026-04-30 22:03 | 47.54467 | 3.82265 | 40182 ft | 460 kts | 338° |
| 2026-04-30 22:04 | 47.60401 | 3.78700 | 40181 ft | 460 kts | 338° |
| 2026-04-30 22:05 | 47.69269 | 3.73357 | 40184 ft | 460 kts | 338° |
| 2026-04-30 22:05 | 47.75203 | 3.69771 | 40180 ft | 460 kts | 338° |
| 2026-04-30 22:06 | 47.81140 | 3.66175 | 40182 ft | 461 kts | 338° |
| 2026-04-30 22:06 | 47.90045 | 3.60764 | 40184 ft | 461 kts | 338° |
| 2026-04-30 22:07 | 47.95988 | 3.57142 | 40182 ft | 461 kts | 338° |
| 2026-04-30 22:07 | 48.01923 | 3.53506 | 40182 ft | 462 kts | 338° |
| 2026-04-30 22:08 | 48.07874 | 3.49845 | 40181 ft | 462 kts | 338° |
| 2026-04-30 22:08 | 48.13827 | 3.46174 | 40184 ft | 462 kts | 338° |
| 2026-04-30 22:09 | 48.19738 | 3.42520 | 40190 ft | 463 kts | 338° |
| 2026-04-30 22:09 | 48.25689 | 3.38833 | 40184 ft | 463 kts | 337° |
| 2026-04-30 22:10 | 48.31648 | 3.35131 | 40189 ft | 463 kts | 337° |
| 2026-04-30 22:10 | 48.37597 | 3.31426 | 40197 ft | 462 kts | 337° |
| 2026-04-30 22:11 | 48.46506 | 3.25811 | 40196 ft | 464 kts | 337° |
| 2026-04-30 22:12 | 48.52338 | 3.22081 | 40201 ft | 465 kts | 337° |
| 2026-04-30 22:12 | 48.58264 | 3.18282 | 40200 ft | 464 kts | 337° |
| 2026-04-30 22:13 | 48.64211 | 3.14464 | 40207 ft | 465 kts | 338° |
| 2026-04-30 22:13 | 48.70162 | 3.10636 | 40205 ft | 464 kts | 338° |
| 2026-04-30 22:14 | 48.76108 | 3.06802 | 40207 ft | 464 kts | 338° |
| 2026-04-30 22:14 | 48.82057 | 3.02957 | 40212 ft | 464 kts | 337° |
| 2026-04-30 22:15 | 48.87797 | 2.98478 | 40223 ft | 464 kts | 331° |
| 2026-04-30 22:15 | 48.93381 | 2.93666 | 40216 ft | 464 kts | 330° |
| 2026-04-30 22:16 | 48.98967 | 2.88753 | 40216 ft | 464 kts | 330° |
| 2026-04-30 22:17 | 49.10166 | 2.78878 | 40213 ft | 464 kts | 330° |
| 2026-04-30 22:17 | 49.18580 | 2.71446 | 40216 ft | 466 kts | 330° |
| 2026-04-30 22:18 | 49.26990 | 2.63989 | 40228 ft | 465 kts | 330° |
| 2026-04-30 22:19 | 49.35403 | 2.56499 | 40225 ft | 466 kts | 330° |
| 2026-04-30 22:20 | 49.43761 | 2.49027 | 40219 ft | 465 kts | 330° |
| 2026-04-30 22:20 | 49.52311 | 2.42004 | 40218 ft | 464 kts | 341° |
| 2026-04-30 22:21 | 49.58451 | 2.38905 | 40218 ft | 464 kts | 343° |
| 2026-04-30 22:21 | 49.64654 | 2.36078 | 40219 ft | 464 kts | 344° |
| 2026-04-30 22:22 | 49.70858 | 2.33299 | 40221 ft | 465 kts | 344° |
| 2026-04-30 22:22 | 49.77065 | 2.30490 | 40229 ft | 464 kts | 344° |
| 2026-04-30 22:23 | 49.83259 | 2.27661 | 40230 ft | 464 kts | 344° |
| 2026-04-30 22:23 | 49.89409 | 2.24837 | 40230 ft | 465 kts | 343° |
| 2026-04-30 22:24 | 49.95623 | 2.21977 | 40235 ft | 466 kts | 344° |
| 2026-04-30 22:24 | 50.01846 | 2.19105 | 40236 ft | 466 kts | 344° |
| 2026-04-30 22:25 | 50.08063 | 2.16229 | 40228 ft | 466 kts | 344° |
| 2026-04-30 22:25 | 50.14283 | 2.13344 | 40233 ft | 466 kts | 344° |
| 2026-04-30 22:26 | 50.23558 | 2.09027 | 40230 ft | 465 kts | 344° |
| 2026-04-30 22:27 | 50.29765 | 2.06129 | 40232 ft | 465 kts | 344° |
| 2026-04-30 22:27 | 50.38667 | 2.00238 | 40228 ft | 465 kts | 324° |
| 2026-04-30 22:28 | 50.46188 | 1.90599 | 40230 ft | 466 kts | 319° |
| 2026-04-30 22:29 | 50.55883 | 1.77175 | 40212 ft | 467 kts | 319° |
| 2026-04-30 22:31 | 50.73000 | 1.53548 | 40230 ft | 467 kts | 319° |
| 2026-04-30 22:32 | 50.85270 | 1.36744 | 40224 ft | 468 kts | 320° |
| 2026-04-30 22:33 | 50.97483 | 1.19660 | 40216 ft | 468 kts | 319° |
| 2026-04-30 22:35 | 51.09508 | 1.02438 | 40218 ft | 454 kts | 316° |
| 2026-04-30 22:36 | 51.18006 | 0.89098 | 40218 ft | 404 kts | 315° |
| 2026-04-30 22:36 | 51.19978 | 0.85993 | 40214 ft | 392 kts | 316° |
| 2026-04-30 22:37 | 51.26985 | 0.81175 | 40210 ft | 371 kts | 0° |
| 2026-04-30 22:37 | 51.29582 | 0.81114 | 40209 ft | 375 kts | 1° |
| 2026-04-30 22:37 | 51.34823 | 0.80297 | 40219 ft | 385 kts | 340° |
| 2026-04-30 22:38 | 51.39600 | 0.76249 | 40235 ft | 394 kts | 327° |
| 2026-04-30 22:38 | 51.43699 | 0.70498 | 40235 ft | 395 kts | 308° |
| 2026-04-30 22:39 | 51.45347 | 0.66993 | 40240 ft | 394 kts | 304° |
| 2026-04-30 22:40 | 51.53826 | 0.44509 | 40236 ft | 392 kts | 300° |
| 2026-04-30 22:41 | 51.60814 | 0.25730 | 40212 ft | 392 kts | 300° |
| 2026-04-30 22:42 | 51.66456 | 0.12480 | 40210 ft | 392 kts | 312° |
| 2026-04-30 22:43 | 51.70197 | 0.06136 | 40211 ft | 388 kts | 314° |
| 2026-04-30 22:44 | 51.77708 | -0.06140 | 40255 ft | 384 kts | 314° |
| 2026-04-30 22:45 | 51.85171 | -0.18466 | 39570 ft | 385 kts | 314° |
| 2026-04-30 22:45 | 51.88911 | -0.24677 | 39112 ft | 385 kts | 314° |
| 2026-04-30 22:46 | 51.92653 | -0.30906 | 38606 ft | 386 kts | 314° |
| 2026-04-30 22:47 | 52.00172 | -0.43464 | 37208 ft | 390 kts | 313° |
| 2026-04-30 22:47 | 52.03951 | -0.49798 | 36344 ft | 391 kts | 313° |
| 2026-04-30 22:48 | 52.07749 | -0.56179 | 35425 ft | 394 kts | 313° |
| 2026-04-30 22:49 | 52.13537 | -0.65932 | 33775 ft | 405 kts | 313° |
| 2026-04-30 22:49 | 52.19246 | -0.75593 | 33132 ft | 384 kts | 313° |
| 2026-04-30 22:50 | 52.26970 | -0.87155 | 31692 ft | 380 kts | 326° |
| 2026-04-30 22:51 | 52.31469 | -0.91801 | 30739 ft | 385 kts | 329° |
| 2026-04-30 22:51 | 52.36073 | -0.96339 | 29803 ft | 387 kts | 329° |
| 2026-04-30 22:52 | 52.38380 | -0.98610 | 29301 ft | 387 kts | 329° |
| 2026-04-30 22:52 | 52.42983 | -1.03174 | 27685 ft | 388 kts | 328° |
| 2026-04-30 22:53 | 52.47635 | -1.07826 | 25757 ft | 394 kts | 328° |
| 2026-04-30 22:53 | 52.52341 | -1.12546 | 24109 ft | 399 kts | 328° |
| 2026-04-30 22:53 | 52.54717 | -1.14931 | 23571 ft | 401 kts | 328° |
| 2026-04-30 22:54 | 52.59385 | -1.19683 | 22645 ft | 395 kts | 328° |
| 2026-04-30 22:55 | 52.66252 | -1.26676 | 21381 ft | 377 kts | 328° |
| 2026-04-30 22:55 | 52.70683 | -1.31187 | 20188 ft | 375 kts | 328° |
| 2026-04-30 22:56 | 52.75103 | -1.35686 | 19565 ft | 367 kts | 328° |
| 2026-04-30 22:56 | 52.81480 | -1.42199 | 18432 ft | 353 kts | 328° |
| 2026-04-30 22:57 | 52.85606 | -1.46431 | 17015 ft | 347 kts | 328° |
| 2026-04-30 22:57 | 52.89708 | -1.50643 | 16162 ft | 347 kts | 328° |
| 2026-04-30 22:58 | 52.93789 | -1.54834 | 15342 ft | 343 kts | 328° |
| 2026-04-30 22:59 | 52.99817 | -1.61049 | 14261 ft | 332 kts | 327° |
| 2026-04-30 22:59 | 53.05395 | -1.67092 | 13133 ft | 307 kts | 316° |